createdAt,value
2019-05-06T00:01:47.924Z,98041.57
2019-05-06T00:04:19.499Z,98045.48
2019-05-06T00:06:48.725Z,98045.83
2019-05-06T00:09:19.182Z,98049.48
2019-05-06T00:11:54.297Z,98041.42
2019-05-06T00:14:25.256Z,98043.02
2019-05-06T00:16:55.186Z,98043.20
2019-05-06T00:19:25.449Z,98041.23
2019-05-06T00:21:54.718Z,98048.69
2019-05-06T00:24:26.548Z,98047.38
2019-05-06T00:27:06.431Z,98045.59
2019-05-06T00:29:39.717Z,98046.91
2019-05-06T00:32:09.797Z,98041.80
2019-05-06T00:34:40.451Z,98043.42
2019-05-06T00:37:12.115Z,98044.89
2019-05-06T00:39:53.908Z,98040.39
2019-05-06T00:42:34.677Z,98041.25
2019-05-06T00:45:04.615Z,98047.62
2019-05-06T00:47:35.134Z,98041.70
2019-05-06T00:50:09.113Z,98043.14
2019-05-06T00:52:39.559Z,98046.61
2019-05-06T00:55:09.219Z,98051.05
2019-05-06T00:57:44.652Z,98054.50
2019-05-06T01:00:24.508Z,98054.69
2019-05-06T01:02:54.353Z,98050.13
2019-05-06T01:05:24.498Z,98050.82
2019-05-06T01:07:54.956Z,98044.45
2019-05-06T01:10:25.710Z,98057.80
2019-05-06T01:13:14.549Z,98050.62
2019-05-06T01:15:44.099Z,98058.02
2019-05-06T01:18:13.764Z,98056.22
2019-05-06T01:20:44.665Z,98059.32
2019-05-06T01:23:16.147Z,98061.81
2019-05-06T01:25:46.459Z,98060.47
2019-05-06T01:28:15.937Z,98059.98
2019-05-06T01:30:48.221Z,98064.16
2019-05-06T01:33:20.901Z,98067.09
2019-05-06T01:35:54.877Z,98068.94
2019-05-06T01:38:33.814Z,98073.06
2019-05-06T01:41:17.248Z,98067.33
2019-05-06T01:43:46.549Z,98069.77
2019-05-06T01:46:17.378Z,98074.14
2019-05-06T01:48:49.613Z,98078.33
2019-05-06T01:51:20.027Z,98080.02
2019-05-06T01:53:50.996Z,98075.89
2019-05-06T01:56:20.251Z,98077.30
2019-05-06T01:58:51.127Z,98080.59
2019-05-06T02:01:20.677Z,98089.51
2019-05-06T02:03:50.680Z,98091.67
2019-05-06T02:06:19.952Z,98094.41
2019-05-06T02:08:49.889Z,98092.46
2019-05-06T02:11:19.493Z,98096.95
2019-05-06T02:13:48.717Z,98095.87
2019-05-06T02:16:18.284Z,98096.73
2019-05-06T02:18:55.872Z,98095.28
2019-05-06T02:21:43.906Z,98097.27
2019-05-06T02:24:19.175Z,98094.11
2019-05-06T02:26:49.876Z,98098.41
2019-05-06T02:29:24.679Z,98093.97
2019-05-06T02:32:17.101Z,98099.77
2019-05-06T02:34:45.811Z,98100.14
2019-05-06T02:37:27.451Z,98097.73
2019-05-06T02:39:56.684Z,98095.28
2019-05-06T02:42:25.947Z,98094.67
2019-05-06T02:44:56.652Z,98100.05
2019-05-06T02:47:47.375Z,98104.66
2019-05-06T02:50:19.572Z,98107.11
2019-05-06T02:52:48.811Z,98108.73
2019-05-06T02:55:19.513Z,98107.41
2019-05-06T02:57:49.097Z,98109.74
2019-05-06T03:00:20.470Z,98106.11
2019-05-06T03:02:53.841Z,98112.16
2019-05-06T03:05:29.522Z,98114.48
2019-05-06T03:07:58.774Z,98122.32
2019-05-06T03:10:36.537Z,98121.34
2019-05-06T03:13:05.795Z,98122.80
2019-05-06T03:15:37.186Z,98128.54
2019-05-06T03:18:06.420Z,98128.58
2019-05-06T03:20:59.551Z,98124.82
2019-05-06T03:23:34.416Z,98129.42
2019-05-06T03:26:03.756Z,98126.62
2019-05-06T03:28:33.467Z,98131.70
2019-05-06T03:31:07.125Z,98125.69
2019-05-06T03:33:50.691Z,98129.77
2019-05-06T03:36:15.504Z,98124.20
2019-05-06T03:38:36.884Z,98127.14
2019-05-06T03:41:06.118Z,98130.91
2019-05-06T03:43:37.009Z,98136.65
2019-05-06T03:46:16.703Z,98147.17
2019-05-06T03:48:47.050Z,98144.06
2019-05-06T03:51:16.664Z,98151.32
2019-05-06T03:53:45.947Z,98155.27
2019-05-06T03:56:19.764Z,98159.83
2019-05-06T03:58:48.887Z,98160.00
2019-05-06T04:01:18.449Z,98151.98
2019-05-06T04:03:53.804Z,98154.61
2019-05-06T04:06:19.927Z,98155.92
2019-05-06T04:08:52.854Z,98162.98
2019-05-06T04:11:24.243Z,98157.37
2019-05-06T04:13:54.363Z,98160.31
2019-05-06T04:16:45.347Z,98170.55
2019-05-06T04:19:25.591Z,98177.58
2019-05-06T04:22:03.703Z,98169.55
2019-05-06T04:24:55.218Z,98172.35
2019-05-06T04:27:45.704Z,98176.58
2019-05-06T04:30:16.337Z,98181.31
2019-05-06T04:32:46.008Z,98186.18
2019-05-06T04:35:15.307Z,98188.16
2019-05-06T04:37:44.655Z,98181.75
2019-05-06T04:40:14.812Z,98190.47
2019-05-06T04:42:45.492Z,98193.24
2019-05-06T04:45:17.943Z,98191.25
2019-05-06T04:47:46.994Z,98186.83
2019-05-06T04:50:17.435Z,98187.19
2019-05-06T04:52:48.313Z,98185.83
2019-05-06T04:55:17.742Z,98193.19
2019-05-06T04:57:47.941Z,98190.89
2019-05-06T05:00:23.401Z,98190.89
2019-05-06T05:02:55.106Z,98194.85
2019-05-06T05:05:25.599Z,98191.16
2019-05-06T05:07:54.820Z,98198.88
2019-05-06T05:10:28.146Z,98193.96
2019-05-06T05:13:23.125Z,98195.92
2019-05-06T05:16:10.173Z,98206.58
2019-05-06T05:18:55.564Z,98197.10
2019-05-06T05:21:24.889Z,98209.07
2019-05-06T05:23:54.245Z,98200.78
2019-05-06T05:26:23.463Z,98211.23
2019-05-06T05:28:59.319Z,98210.14
2019-05-06T05:31:28.528Z,98204.41
2019-05-06T05:34:02.075Z,98212.10
2019-05-06T05:36:32.858Z,98212.49
2019-05-06T05:39:03.338Z,98212.67
2019-05-06T05:41:33.361Z,98204.66
2019-05-06T05:44:09.242Z,98217.35
2019-05-06T05:46:40.550Z,98224.21
2019-05-06T05:49:37.886Z,98218.75
2019-05-06T05:52:07.109Z,98227.64
2019-05-06T05:54:36.350Z,98224.13
2019-05-06T05:57:05.696Z,98226.78
2019-05-06T05:59:34.942Z,98227.42
2019-05-06T06:02:05.160Z,98225.05
2019-05-06T06:04:34.397Z,98224.89
2019-05-06T06:07:03.617Z,98231.06
2019-05-06T06:09:37.652Z,98233.05
2019-05-06T06:12:08.352Z,98225.97
2019-05-06T06:14:56.577Z,98229.36
2019-05-06T06:17:47.298Z,98229.83
2019-05-06T06:20:38.509Z,98228.92
2019-05-06T06:23:13.819Z,98237.41
2019-05-06T06:25:43.339Z,98233.78
2019-05-06T06:28:12.968Z,98232.71
2019-05-06T06:31:04.374Z,98223.68
2019-05-06T06:33:33.604Z,98219.27
2019-05-06T06:36:23.102Z,98225.20
2019-05-06T06:39:20.369Z,98228.55
2019-05-06T06:41:49.594Z,98221.92
2019-05-06T06:44:23.553Z,98219.41
2019-05-06T06:46:53.984Z,98224.02
2019-05-06T06:49:23.447Z,98224.41
2019-05-06T06:51:56.203Z,98227.77
2019-05-06T06:54:25.617Z,98220.02
2019-05-06T06:57:21.680Z,98226.25
2019-05-06T06:59:55.661Z,98214.31
2019-05-06T07:02:44.491Z,98220.64
2019-05-06T07:05:33.237Z,98218.98
2019-05-06T07:08:02.490Z,98224.20
2019-05-06T07:10:44.920Z,98218.86
2019-05-06T07:13:17.065Z,98218.52
2019-05-06T07:15:48.986Z,98224.38
2019-05-06T07:18:18.568Z,98223.88
2019-05-06T07:21:13.850Z,98214.38
2019-05-06T07:23:42.121Z,98215.02
2019-05-06T07:26:13.267Z,98210.30
2019-05-06T07:28:43.613Z,98210.11
2019-05-06T07:31:21.315Z,98207.98
2019-05-06T07:33:45.795Z,98210.69
2019-05-06T07:36:15.065Z,98201.64
2019-05-06T07:38:52.667Z,98202.81
2019-05-06T07:41:28.422Z,98201.70
2019-05-06T07:44:12.825Z,98195.32
2019-05-06T07:46:55.578Z,98195.32
2019-05-06T07:49:27.767Z,98197.61
2019-05-06T07:51:57.561Z,98198.91
2019-05-06T07:54:27.986Z,98199.35
2019-05-06T07:56:57.583Z,98195.67
2019-05-06T07:59:33.252Z,98205.52
2019-05-06T08:02:05.181Z,98203.09
2019-05-06T08:04:35.336Z,98212.63
2019-05-06T08:07:04.883Z,98216.36
2019-05-06T08:09:35.906Z,98212.25
2019-05-06T08:12:05.901Z,98213.44
2019-05-06T08:14:44.285Z,98215.55
2019-05-06T08:17:29.982Z,98218.39
2019-05-06T08:19:59.181Z,98213.39
2019-05-06T08:23:07.501Z,98207.10
2019-05-06T08:25:38.705Z,98208.08
2019-05-06T08:30:56.820Z,98210.01
2019-05-06T08:33:27.716Z,98208.61
2019-05-06T08:36:10.572Z,98209.08
2019-05-06T08:38:50.386Z,98206.50
2019-05-06T08:41:22.755Z,98210.90
2019-05-06T08:43:52.826Z,98202.48
2019-05-06T08:46:23.457Z,98194.09
2019-05-06T08:48:52.975Z,98190.47
2019-05-06T08:51:36.238Z,98195.16
2019-05-06T08:54:10.120Z,98195.82
2019-05-06T08:56:40.204Z,98196.42
2019-05-06T08:59:09.479Z,98193.60
2019-05-06T09:01:49.683Z,98188.42
2019-05-06T09:04:22.892Z,98195.98
2019-05-06T09:06:53.459Z,98185.84
2019-05-06T09:09:23.496Z,98183.59
2019-05-06T09:11:53.530Z,98186.02
2019-05-06T09:14:24.017Z,98174.77
2019-05-06T09:16:54.036Z,98173.20
2019-05-06T09:19:23.671Z,98169.74
2019-05-06T09:21:53.414Z,98167.11
2019-05-06T09:24:24.139Z,98165.52
2019-05-06T09:27:12.343Z,98165.47
2019-05-06T09:29:55.173Z,98159.28
2019-05-06T09:32:28.609Z,98159.28
2019-05-06T09:35:02.714Z,98173.33
2019-05-06T09:37:32.717Z,98162.31
2019-05-06T09:40:02.832Z,98159.34
2019-05-06T09:42:33.413Z,98153.62
2019-05-06T09:45:03.550Z,98155.98
2019-05-06T09:47:42.393Z,98150.13
2019-05-06T09:50:18.013Z,98163.88
2019-05-06T09:52:48.343Z,98161.04
2019-05-06T09:55:33.887Z,98161.78
2019-05-06T09:58:05.135Z,98159.36
2019-05-06T10:00:38.059Z,98165.91
2019-05-06T10:03:07.672Z,98169.45
2019-05-06T10:05:36.917Z,98167.89
2019-05-06T10:08:06.138Z,98182.25
2019-05-06T10:10:36.288Z,98175.66
2019-05-06T10:13:05.929Z,98177.80
2019-05-06T10:15:35.289Z,98178.35
2019-05-06T10:18:12.718Z,98179.52
2019-05-06T10:20:44.106Z,98176.12
2019-05-06T10:23:14.155Z,98175.38
2019-05-06T10:25:44.160Z,98186.16
2019-05-06T10:28:38.753Z,98182.88
2019-05-06T10:31:12.843Z,98184.66
2019-05-06T10:33:59.482Z,98182.66
2019-05-06T10:36:34.487Z,98183.77
2019-05-06T10:39:08.937Z,98195.39
2019-05-06T10:41:42.266Z,98183.11
2019-05-06T10:44:22.644Z,98178.58
2019-05-06T10:46:52.766Z,98181.44
2019-05-06T10:49:22.613Z,98189.50
2019-05-06T10:52:14.257Z,98186.64
2019-05-06T10:54:45.229Z,98187.77
2019-05-06T10:57:28.512Z,98189.54
2019-05-06T10:59:57.751Z,98199.79
2019-05-06T11:02:43.206Z,98191.46
2019-05-06T11:05:15.115Z,98203.81
2019-05-06T11:07:44.333Z,98203.01
2019-05-06T11:10:23.750Z,98209.20
2019-05-06T11:12:45.094Z,98215.32
2019-05-06T11:15:16.038Z,98219.93
2019-05-06T11:17:46.850Z,98214.97
2019-05-06T11:20:17.882Z,98218.41
2019-05-06T11:22:47.112Z,98212.31
2019-05-06T11:25:16.668Z,98216.08
2019-05-06T11:27:47.037Z,98216.41
2019-05-06T11:30:27.771Z,98216.02
2019-05-06T11:33:12.639Z,98226.16
2019-05-06T11:35:54.018Z,98225.41
2019-05-06T11:38:24.354Z,98225.95
2019-05-06T11:40:53.593Z,98229.45
2019-05-06T11:43:22.968Z,98225.68
2019-05-06T11:45:52.332Z,98223.28
2019-05-06T11:48:24.021Z,98220.30
2019-05-06T11:50:56.501Z,98225.50
2019-05-06T11:53:25.547Z,98225.45
2019-05-06T11:55:56.411Z,98222.72
2019-05-06T11:58:42.759Z,98216.39
2019-05-06T12:01:18.337Z,98223.23
2019-05-06T12:03:47.896Z,98229.48
2019-05-06T12:06:17.200Z,98229.19
2019-05-06T12:08:47.558Z,98222.94
2019-05-06T12:11:17.114Z,98221.95
2019-05-06T12:13:46.503Z,98223.91
2019-05-06T12:16:15.883Z,98213.34
2019-05-06T12:18:45.101Z,98211.11
2019-05-06T12:21:19.126Z,98207.98
2019-05-06T12:23:45.378Z,98209.06
2019-05-06T12:26:14.950Z,98216.86
2019-05-06T12:28:46.966Z,98209.75
2019-05-06T12:31:16.291Z,98210.00
2019-05-06T12:33:48.835Z,98216.34
2019-05-06T12:36:22.697Z,98196.19
2019-05-06T12:39:15.894Z,98208.81
2019-05-06T12:41:53.451Z,98220.67
2019-05-06T12:44:23.166Z,98225.04
2019-05-06T12:47:07.145Z,98225.13
2019-05-06T12:49:36.437Z,98225.63
2019-05-06T12:52:07.424Z,98232.91
2019-05-06T12:54:36.643Z,98241.37
2019-05-06T12:57:06.138Z,98245.66
2019-05-06T12:59:38.409Z,98242.84
2019-05-06T13:02:07.650Z,98247.87
2019-05-06T13:04:51.757Z,98252.09
2019-05-06T13:07:09.946Z,98246.41
2019-05-06T13:09:42.346Z,98251.48
2019-05-06T13:12:12.504Z,98247.32
2019-05-06T13:14:43.084Z,98247.92
2019-05-06T13:17:14.488Z,98246.03
2019-05-06T13:19:43.740Z,98246.58
2019-05-06T13:22:29.421Z,98240.11
2019-05-06T13:25:00.077Z,98247.12
2019-05-06T13:27:38.425Z,98248.77
2019-05-06T13:30:09.658Z,98250.66
2019-05-06T13:32:42.605Z,98248.28
2019-05-06T13:35:12.344Z,98241.03
2019-05-06T13:37:42.460Z,98248.55
2019-05-06T13:40:13.020Z,98245.80
2019-05-06T13:42:44.900Z,98242.48
2019-05-06T13:45:14.230Z,98241.66
2019-05-06T13:48:03.739Z,98240.55
2019-05-06T13:50:38.396Z,98232.77
2019-05-06T13:53:14.801Z,98227.44
2019-05-06T13:55:43.831Z,98232.03
2019-05-06T13:58:13.068Z,98229.51
2019-05-06T14:00:43.787Z,98227.98
2019-05-06T14:03:13.563Z,98229.14
2019-05-06T14:05:52.161Z,98219.95
2019-05-06T14:08:22.300Z,98216.38
2019-05-06T14:10:59.146Z,98220.34
2019-05-06T14:13:22.843Z,98217.66
2019-05-06T14:15:52.781Z,98218.74
2019-05-06T14:18:23.484Z,98213.66
2019-05-06T14:20:52.999Z,98205.34
2019-05-06T14:23:22.310Z,98210.05
2019-05-06T14:26:16.978Z,98201.67
2019-05-06T14:29:12.843Z,98200.80
2019-05-06T14:31:45.868Z,98209.42
2019-05-06T14:34:15.124Z,98203.85
2019-05-06T14:36:44.361Z,98206.05
2019-05-06T14:39:23.635Z,98202.23
2019-05-06T14:41:56.160Z,98206.22
2019-05-06T14:44:26.338Z,98207.73
2019-05-06T14:47:14.793Z,98202.90
2019-05-06T14:49:44.043Z,98211.52
2019-05-06T14:52:13.560Z,98207.72
2019-05-06T14:54:53.822Z,98207.33
2019-05-06T14:57:24.119Z,98206.93
2019-05-06T14:59:55.628Z,98198.31
2019-05-06T15:02:27.499Z,98208.72
2019-05-06T15:04:56.920Z,98210.34
2019-05-06T15:07:28.602Z,98207.34
2019-05-06T15:10:14.956Z,98205.91
2019-05-06T15:12:33.348Z,98199.40
2019-05-06T15:15:03.807Z,98208.13
2019-05-06T15:17:36.535Z,98198.30
2019-05-06T15:20:04.459Z,98207.39
2019-05-06T15:22:33.867Z,98205.28
2019-05-06T15:25:04.912Z,98200.38
2019-05-06T15:27:34.136Z,98206.73
2019-05-06T15:30:06.748Z,98202.14
2019-05-06T15:32:38.442Z,98205.10
2019-05-06T15:35:26.660Z,98200.88
2019-05-06T15:38:02.341Z,98209.34
2019-05-06T15:40:36.773Z,98202.59
2019-05-06T15:43:05.781Z,98205.25
2019-05-06T15:45:35.617Z,98214.27
2019-05-06T15:48:06.809Z,98215.36
2019-05-06T15:50:38.252Z,98210.91
2019-05-06T15:53:08.756Z,98222.52
2019-05-06T15:55:40.451Z,98221.36
2019-05-06T15:58:12.364Z,98226.02
2019-05-06T16:00:42.395Z,98220.45
2019-05-06T16:03:12.932Z,98224.25
2019-05-06T16:05:43.657Z,98226.41
2019-05-06T16:08:13.451Z,98228.41
2019-05-06T16:10:51.819Z,98231.95
2019-05-06T16:13:13.715Z,98228.62
2019-05-06T16:15:43.191Z,98224.36
2019-05-06T16:18:13.051Z,98228.23
2019-05-06T16:20:43.659Z,98231.25
2019-05-06T16:23:23.125Z,98228.15
2019-05-06T16:25:52.562Z,98229.48
2019-05-06T16:28:22.450Z,98230.11
2019-05-06T16:30:53.443Z,98235.19
2019-05-06T16:33:23.014Z,98240.36
2019-05-06T16:35:52.422Z,98237.31
2019-05-06T16:38:22.961Z,98235.41
2019-05-06T16:41:09.085Z,98240.17
2019-05-06T16:43:25.046Z,98237.15
2019-05-06T16:45:54.288Z,98238.00
2019-05-06T16:48:24.549Z,98242.04
2019-05-06T16:50:53.845Z,98239.13
2019-05-06T16:53:23.143Z,98240.55
2019-05-06T16:56:07.001Z,98232.13
2019-05-06T16:58:38.916Z,98235.41
2019-05-06T17:01:14.911Z,98234.93
2019-05-06T17:03:52.431Z,98229.74
2019-05-06T17:06:25.908Z,98234.88
2019-05-06T17:08:55.167Z,98228.17
2019-05-06T17:11:30.491Z,98231.69
2019-05-06T17:13:55.459Z,98224.95
2019-05-06T17:16:27.203Z,98228.27
2019-05-06T17:18:57.069Z,98235.98
2019-05-06T17:21:27.052Z,98240.40
2019-05-06T17:23:56.261Z,98239.19
2019-05-06T17:26:25.665Z,98241.41
2019-05-06T17:29:16.903Z,98238.78
2019-05-06T17:32:13.826Z,98245.45
2019-05-06T17:34:46.734Z,98241.28
2019-05-06T17:37:36.956Z,98247.99
2019-05-06T17:40:10.585Z,98249.00
2019-05-06T17:42:38.060Z,98251.44
2019-05-06T17:45:25.592Z,98256.86
2019-05-06T17:47:59.018Z,98250.97
2019-05-06T17:50:29.170Z,98257.89
2019-05-06T17:53:00.149Z,98267.65
2019-05-06T17:55:35.819Z,98267.12
2019-05-06T17:58:04.921Z,98267.94
2019-05-06T18:00:34.144Z,98264.82
2019-05-06T18:03:03.447Z,98263.73
2019-05-06T18:05:32.986Z,98273.08
2019-05-06T18:08:03.046Z,98272.16
2019-05-06T18:10:33.589Z,98276.95
2019-05-06T18:13:03.529Z,98277.78
2019-05-06T18:15:33.186Z,98284.70
2019-05-06T18:18:06.450Z,98285.58
2019-05-06T18:20:35.816Z,98278.53
2019-05-06T18:23:07.377Z,98281.30
2019-05-06T18:25:38.894Z,98278.65
2019-05-06T18:28:12.114Z,98282.84
2019-05-06T18:30:41.349Z,98287.11
2019-05-06T18:33:13.170Z,98296.69
2019-05-06T18:35:42.145Z,98294.91
2019-05-06T18:38:11.735Z,98299.91
2019-05-06T18:40:42.340Z,98299.63
2019-05-06T18:43:12.776Z,98310.55
2019-05-06T18:45:42.052Z,98310.67
2019-05-06T18:48:12.459Z,98316.39
2019-05-06T18:50:42.410Z,98315.56
2019-05-06T18:53:13.351Z,98320.38
2019-05-06T18:55:43.253Z,98331.13
2019-05-06T18:58:12.942Z,98335.53
2019-05-06T19:00:43.947Z,98333.38
2019-05-06T19:03:14.523Z,98339.14
2019-05-06T19:05:45.259Z,98341.00
2019-05-06T19:08:34.828Z,98340.20
2019-05-06T19:11:05.946Z,98342.77
2019-05-06T19:13:35.200Z,98346.33
2019-05-06T19:16:05.192Z,98354.52
2019-05-06T19:18:34.481Z,98351.12
2019-05-06T19:21:04.036Z,98356.34
2019-05-06T19:23:33.322Z,98364.02
2019-05-06T19:26:03.048Z,98364.02
2019-05-06T19:28:32.915Z,98367.47
2019-05-06T19:31:03.087Z,98366.14
2019-05-06T19:33:34.865Z,98366.77
2019-05-06T19:36:04.276Z,98374.31
2019-05-06T19:38:35.766Z,98374.02
2019-05-06T19:41:09.130Z,98376.38
2019-05-06T19:43:39.268Z,98377.83
2019-05-06T19:46:09.280Z,98378.21
2019-05-06T19:48:38.521Z,98373.94
2019-05-06T19:51:08.946Z,98369.41
2019-05-06T19:53:38.508Z,98368.30
2019-05-06T19:56:09.766Z,98376.59
2019-05-06T19:58:39.017Z,98375.14
2019-05-06T20:01:09.798Z,98381.45
2019-05-06T20:03:39.072Z,98374.81
2019-05-06T20:06:27.535Z,98376.44
2019-05-06T20:09:17.499Z,98376.48
2019-05-06T20:11:47.316Z,98384.92
2019-05-06T20:14:25.213Z,98387.02
2019-05-06T20:16:54.433Z,98379.95
2019-05-06T20:19:30.712Z,98381.77
2019-05-06T20:21:55.957Z,98386.35
2019-05-06T20:24:25.199Z,98381.75
2019-05-06T20:26:55.390Z,98381.12
2019-05-06T20:29:26.218Z,98382.05
2019-05-06T20:31:55.720Z,98381.75
2019-05-06T20:34:26.576Z,98379.02
2019-05-06T20:36:56.941Z,98378.12
2019-05-06T20:39:27.002Z,98375.95
2019-05-06T20:41:56.243Z,98378.62
2019-05-06T20:44:26.745Z,98379.02
2019-05-06T20:46:58.398Z,98384.41
2019-05-06T20:49:28.556Z,98383.73
2019-05-06T20:51:59.886Z,98382.05
2019-05-06T20:54:29.493Z,98379.09
2019-05-06T20:56:58.999Z,98376.55
2019-05-06T20:59:28.810Z,98376.25
2019-05-06T21:01:59.247Z,98366.44
2019-05-06T21:04:28.463Z,98373.19
2019-05-06T21:06:58.763Z,98375.04
2019-05-06T21:09:28.014Z,98374.47
2019-05-06T21:11:57.260Z,98370.89
2019-05-06T21:14:26.483Z,98369.39
2019-05-06T21:16:56.140Z,98374.49
2019-05-06T21:19:27.148Z,98372.56
2019-05-06T21:21:57.205Z,98371.66
2019-05-06T21:24:27.789Z,98373.41
2019-05-06T21:26:57.201Z,98369.61
2019-05-06T21:29:26.417Z,98368.77
2019-05-06T21:31:55.744Z,98365.69
2019-05-06T21:34:25.025Z,98362.50
2019-05-06T21:36:54.276Z,98367.68
2019-05-06T21:39:25.380Z,98375.11
2019-05-06T21:41:56.346Z,98368.91
2019-05-06T21:44:26.002Z,98364.46
2019-05-06T21:46:55.331Z,98369.95
2019-05-06T21:49:27.841Z,98366.17
2019-05-06T21:51:58.629Z,98365.62
2019-05-06T21:54:28.765Z,98368.09
2019-05-06T21:56:58.005Z,98362.37
2019-05-06T21:59:27.964Z,98366.68
2019-05-06T23:23:02.433Z,98349.41
2019-05-06T23:25:32.790Z,98345.82
2019-05-06T23:28:02.945Z,98350.00
2019-05-06T23:30:35.040Z,98348.65
2019-05-06T23:33:05.985Z,98350.27
2019-05-06T23:35:38.454Z,98348.00
2019-05-06T23:38:43.615Z,98355.19
2019-05-06T23:41:48.644Z,98355.29
2019-05-06T23:44:54.730Z,98354.87
2019-05-06T23:48:02.567Z,98356.66
2019-05-06T23:51:12.740Z,98358.02
2019-05-06T23:54:18.396Z,98352.12
2019-05-06T23:56:45.914Z,98355.52
2019-05-06T23:59:22.565Z,98354.39
